Impacts TAF Board
For situational awareness. Not to be used for flight planning purposes.
IDs:

KSEA - Seattle-Tacoma Intl, WA, US

Issued at 1720 UTC 20 Jan 2019
Updated at 1805 UTC 20 Jan 2019
Potential Impact None Slight Moderate High
Time1753Z 20/19Z 20/20Z 20/21Z 20/22Z 20/23Z 21/00Z 21/01Z 21/02Z 21/03Z 21/04Z 21/05Z 21/06Z 21/07Z>>
Type OBS PRVL PRVL PRVL PRVL PRVL PRVL PRVL PRVL PRVL PRVL PRVL PRVL PRVL
VIS 10 >6 >6 >6 >6 >6 >6 >6 >6 >6 >6 >6 >6 >6
CIG 130 10 100 100 100 100 200 200 200 200 200 200 200 200
Cover OVC OVC OVC OVC OVC OVC BKN BKN BKN BKN BKN BKN BKN BKN
FltCat VFR MVFR VFR VFR VFR VFR VFR VFR VFR VFR VFR VFR VFR VFR
WX -- -- -- -- -- -- -- -- -- -- -- -- -- --
WDir 10 10 10 10 10 10 10 10 10 10 10 10 10 10
WSpd 9 10 6 6 6 6 6 6 6 6 6 6 6 6
WGst -- -- -- -- -- -- -- -- -- -- -- -- -- --
Raw TAF
KSEA 201720Z 2018/2124 01010KT P6SM SCT005 BKN010 OVC150
  FM202000 01006KT P6SM SCT015 BKN100 OVC150
  FM210000 01006KT P6SM SCT100 BKN200
  FM211200 01006KT P6SM BKN011


Raw METAR
KSEA 201753Z 01009KT 10SM FEW008 SCT024 OVC130 06/03 A2990 RMK AO2 SLP134 T00560033 10056 20044 58005 $
KSEA 201719Z 02008KT 10SM SCT008 SCT024 OVC130 05/03 A2990 RMK AO2 T00500028 $
KSEA 201706Z 36007KT 10SM SCT008 BKN024 OVC130 05/03 A2991 RMK AO2 T00500028 $
KSEA 201653Z 01007KT 10SM FEW004 BKN008 OVC140 05/03 A2991 RMK AO2 SLP136 T00500028 $
KSEA 201631Z 01005KT 10SM FEW005 BKN010 OVC140 05/03 A2991 RMK AO2 T00500028 $
KSEA 201553Z 36007KT 10SM FEW006 FEW012 OVC140 04/03 A2993 RMK AO2 SLP142 T00440028 $

METAR Board
Radar Display
Forecast Discussion
For situational awareness. Not to be used for flight planning purposes.